Time;durP1;ratioP1;P1;durP2;ratioP2;P2;SDS_P1;SDS_P2;PMS_P1;PMS_P2;Temp;Humidity;BMP_temperature;BMP_pressure;BME280_temperature;BME280_humidity;BME280_pressure;Samples;Min_cycle;Max_cycle;Signal;HPM_P1;HPM_P2
2022/11/02 00:00:53;;;;;;;7.47;1.50;;;;;13.50;100988.00;;;;10308875;28;20216;-78
2022/11/02 00:05:54;;;;;;;8.93;2.23;;;;;13.40;100984.00;;;;10301840;28;20280;-78
2022/11/02 00:10:56;;;;;;;3.80;1.00;;;;;13.30;100970.00;;;;10290996;28;20667;-77
2022/11/02 00:16:04;;;;;;;2.27;1.40;;;;;13.20;100976.00;;;;10325321;28;20184;-77
2022/11/02 00:21:06;;;;;;;5.63;1.23;;;;;13.10;100978.00;;;;10316078;28;20204;-78
2022/11/02 00:26:08;;;;;;;6.47;1.43;;;;;13.00;100986.00;;;;10310019;28;20216;-78
2022/11/02 00:31:11;;;;;;;8.57;1.50;;;;;12.90;100994.00;;;;10312412;28;20188;-78
2022/11/02 00:36:13;;;;;;;6.00;2.07;;;;;12.90;100987.00;;;;10307394;28;20312;-78
2022/11/02 00:41:17;;;;;;;6.97;1.07;;;;;12.90;100991.00;;;;10306213;28;20197;-79
2022/11/02 00:46:19;;;;;;;5.13;1.70;;;;;13.00;100996.00;;;;10274992;28;20682;-79
2022/11/02 00:51:21;;;;;;;5.93;1.27;;;;;13.00;100997.00;;;;10321143;28;20196;-78
2022/11/02 00:56:23;;;;;;;5.77;1.40;;;;;13.00;101011.00;;;;10296925;28;20698;-78
2022/11/02 01:01:26;;;;;;;8.03;1.90;;;;;13.00;101006.00;;;;10321553;28;20185;-77
2022/11/02 01:06:28;;;;;;;7.80;2.03;;;;;13.00;101016.00;;;;10320656;28;20204;-78
2022/11/02 01:11:30;;;;;;;4.30;1.60;;;;;12.90;101018.00;;;;10321076;28;20227;-78
2022/11/02 01:16:32;;;;;;;4.60;1.40;;;;;12.90;101024.00;;;;10320993;28;20234;-78
2022/11/02 01:21:34;;;;;;;9.13;1.73;;;;;12.80;101015.00;;;;10289770;28;20192;-77
2022/11/02 01:26:36;;;;;;;8.30;2.00;;;;;12.80;101021.00;;;;10288685;28;20267;-78
2022/11/02 01:31:38;;;;;;;10.27;1.60;;;;;12.70;101025.00;;;;10306682;28;20656;-78
2022/11/02 01:36:43;;;;;;;11.37;1.97;;;;;12.70;101034.00;;;;10305831;28;20212;-78
2022/11/02 01:41:44;;;;;;;7.37;1.50;;;;;12.70;101039.00;;;;10288765;28;20189;-77
2022/11/02 01:46:46;;;;;;;5.17;1.20;;;;;12.60;101034.00;;;;10264526;28;20649;-78
2022/11/02 01:52:05;;;;;;;7.73;1.53;;;;;12.60;101044.00;;;;10265081;28;20372;-78
2022/11/02 01:57:09;;;;;;;6.87;1.90;;;;;12.60;101058.00;;;;10304049;28;20293;-78
2022/11/02 02:02:21;;;;;;;12.10;2.17;;;;;12.60;101058.00;;;;10301608;28;20235;-78
2022/11/02 02:07:24;;;;;;;4.83;1.50;;;;;12.60;101054.00;;;;10310724;28;20282;-78
2022/11/02 02:12:27;;;;;;;4.10;1.33;;;;;12.60;101056.00;;;;10304938;28;20223;-78
2022/11/02 02:17:35;;;;;;;7.10;1.80;;;;;12.60;101079.00;;;;10317151;28;20218;-78
2022/11/02 02:23:06;;;;;;;6.77;1.87;;;;;12.70;101073.00;;;;10328794;28;20256;-78
2022/11/02 02:28:18;;;;;;;7.17;1.60;;;;;12.70;101060.00;;;;10344015;28;20196;-78
2022/11/02 02:33:34;;;;;;;11.53;1.87;;;;;12.60;101067.00;;;;10327892;28;20529;-77
2022/11/02 02:38:47;;;;;;;9.83;1.70;;;;;12.60;101070.00;;;;10311868;28;20218;-78
2022/11/02 02:43:54;;;;;;;9.33;1.90;;;;;12.50;101069.00;;;;10311899;28;20192;-77
2022/11/02 02:48:58;;;;;;;8.03;1.60;;;;;12.50;101084.00;;;;10311570;28;20185;-78
2022/11/02 02:54:05;;;;;;;7.40;1.77;;;;;12.60;101085.00;;;;10326326;28;20192;-78
2022/11/02 02:59:17;;;;;;;9.10;1.60;;;;;12.50;101092.00;;;;10327461;28;20312;-78
2022/11/02 03:04:19;;;;;;;10.17;3.00;;;;;12.50;101107.00;;;;10315535;28;20209;-78
2022/11/02 03:09:25;;;;;;;11.50;1.87;;;;;12.60;101110.00;;;;10325631;28;20606;-78
2022/11/02 03:14:44;;;;;;;9.07;2.30;;;;;12.60;101111.00;;;;10326661;28;20655;-78
2022/11/02 03:20:22;;;;;;;11.40;1.77;;;;;12.60;101124.00;;;;10308743;28;20216;-77
2022/11/02 03:25:32;;;;;;;10.00;2.90;;;;;12.50;101123.00;;;;10308528;28;20228;-78
2022/11/02 03:30:43;;;;;;;13.40;1.87;;;;;12.50;101128.00;;;;10294815;28;20180;-78
2022/11/02 03:35:55;;;;;;;10.77;1.97;;;;;12.40;101134.00;;;;10309186;28;20284;-78
2022/11/02 03:41:00;;;;;;;10.17;1.90;;;;;12.40;101145.00;;;;10293367;28;20259;-77
2022/11/02 03:46:05;;;;;;;7.87;2.00;;;;;12.40;101154.00;;;;10308180;28;20232;-78
2022/11/02 03:51:11;;;;;;;5.83;1.60;;;;;12.30;101167.00;;;;10309608;28;20244;-78
2022/11/02 03:56:21;;;;;;;8.27;1.50;;;;;12.30;101174.00;;;;10338404;28;20208;-78
2022/11/02 04:01:26;;;;;;;9.43;1.80;;;;;12.20;101181.00;;;;10292965;28;20196;-78
2022/11/02 04:06:31;;;;;;;7.90;1.90;;;;;12.00;101184.00;;;;10308177;28;20252;-78
2022/11/02 04:19:26;;;;;;;13.17;1.87;;;;;11.90;101201.00;;;;10341783;28;20207;-78
2022/11/02 04:27:50;;;;;;;7.27;2.10;;;;;11.80;101218.00;;;;10341914;28;20192;-77
2022/11/02 04:38:40;;;;;;;9.20;1.73;;;;;11.70;101252.00;;;;10294702;28;20301;-78
2022/11/02 04:44:04;;;;;;;6.40;1.93;;;;;11.70;101267.00;;;;10286038;28;20204;-77
2022/11/02 04:49:07;;;;;;;9.40;2.03;;;;;11.70;101278.00;;;;10266426;28;20201;-78
2022/11/02 04:54:10;;;;;;;6.03;1.80;;;;;11.60;101274.00;;;;10312441;28;20283;-78
2022/11/02 04:59:14;;;;;;;12.23;2.03;;;;;11.50;101290.00;;;;10322064;28;20330;-77
2022/11/02 05:04:16;;;;;;;9.00;1.63;;;;;11.40;101290.00;;;;10326120;28;20197;-77
2022/11/02 05:09:20;;;;;;;5.67;1.40;;;;;11.30;101306.00;;;;10303771;28;20211;-78
2022/11/02 05:14:22;;;;;;;10.33;1.73;;;;;11.20;101307.00;;;;10321437;28;20196;-78
2022/11/02 05:19:25;;;;;;;9.67;1.90;;;;;11.20;101312.00;;;;10329713;28;20346;-77
2022/11/02 05:24:27;;;;;;;9.37;2.07;;;;;11.20;101326.00;;;;10316534;28;20200;-78
2022/11/02 05:29:29;;;;;;;9.33;1.90;;;;;11.10;101330.00;;;;10273109;28;20254;-78
2022/11/02 05:34:31;;;;;;;4.97;1.93;;;;;11.10;101346.00;;;;10280994;28;20712;-78
2022/11/02 05:39:34;;;;;;;12.67;2.07;;;;;11.00;101344.00;;;;10337040;28;20216;-78
2022/11/02 05:44:36;;;;;;;7.47;1.80;;;;;10.90;101367.00;;;;10289804;28;20219;-77
2022/11/02 05:49:38;;;;;;;12.67;2.00;;;;;10.80;101361.00;;;;10313239;28;20193;-78
2022/11/02 05:54:40;;;;;;;8.33;1.83;;;;;10.80;101380.00;;;;10288016;28;20790;-77
2022/11/02 05:59:43;;;;;;;10.20;2.03;;;;;10.70;101388.00;;;;10288811;28;20726;-78
2022/11/02 06:04:50;;;;;;;6.27;2.07;;;;;10.70;101395.00;;;;10318736;28;20202;-77
2022/11/02 06:09:52;;;;;;;13.77;2.80;;;;;10.60;101406.00;;;;10287257;28;20672;-78
2022/11/02 06:14:53;;;;;;;10.40;2.73;;;;;10.60;101410.00;;;;10312561;28;20215;-78
2022/11/02 06:19:55;;;;;;;10.87;2.70;;;;;10.50;101405.00;;;;10320016;28;20218;-77
2022/11/02 06:24:57;;;;;;;11.07;2.97;;;;;10.50;101412.00;;;;10303949;28;20706;-78
2022/11/02 06:30:00;;;;;;;12.47;2.00;;;;;10.60;101426.00;;;;10308598;28;20244;-78
2022/11/02 06:35:02;;;;;;;12.90;2.27;;;;;10.60;101441.00;;;;10304703;28;20196;-77
2022/11/02 06:40:04;;;;;;;8.23;1.87;;;;;10.60;101461.00;;;;10317179;28;20291;-77
2022/11/02 06:45:07;;;;;;;16.47;2.47;;;;;10.60;101458.00;;;;10271324;28;20189;-78
2022/11/02 06:50:09;;;;;;;12.33;2.63;;;;;10.60;101479.00;;;;10287730;28;20247;-78
2022/11/02 06:55:12;;;;;;;20.20;2.87;;;;;10.70;101482.00;;;;10315622;28;20208;-78
2022/11/02 07:00:17;;;;;;;16.53;2.60;;;;;10.70;101488.00;;;;10317844;28;20288;-78
2022/11/02 07:05:25;;;;;;;13.63;3.07;;;;;10.80;101498.00;;;;10303310;28;20224;-78
2022/11/02 07:10:27;;;;;;;14.47;2.37;;;;;10.90;101495.00;;;;10318159;28;20193;-78
2022/11/02 07:15:29;;;;;;;8.17;2.47;;;;;11.00;101515.00;;;;10275093;28;20197;-78
2022/11/02 07:20:32;;;;;;;9.47;2.23;;;;;11.00;101506.00;;;;10327175;28;20216;-77
2022/11/02 07:25:34;;;;;;;20.30;3.50;;;;;11.10;101519.00;;;;10304453;28;20238;-78
2022/11/02 07:30:36;;;;;;;16.63;2.83;;;;;11.20;101532.00;;;;10293888;28;20196;-78
2022/11/02 07:35:38;;;;;;;10.63;2.47;;;;;11.30;101536.00;;;;10309047;28;20200;-78
2022/11/02 07:40:40;;;;;;;13.80;2.93;;;;;11.30;101546.00;;;;10278196;28;20675;-77
2022/11/02 07:45:41;;;;;;;10.57;2.43;;;;;11.50;101547.00;;;;10324780;28;20263;-78
2022/11/02 07:50:43;;;;;;;12.57;2.07;;;;;11.60;101566.00;;;;10318267;28;20192;-77
2022/11/02 07:55:45;;;;;;;13.13;2.10;;;;;11.80;101563.00;;;;10281912;28;20208;-77
2022/11/02 08:00:47;;;;;;;15.87;3.17;;;;;11.90;101581.00;;;;10324461;28;20223;-78
2022/11/02 08:05:49;;;;;;;11.70;2.90;;;;;12.00;101588.00;;;;10293404;28;20224;-78
2022/11/02 08:10:51;;;;;;;12.23;2.23;;;;;12.20;101598.00;;;;10317567;28;20638;-78
2022/11/02 08:15:53;;;;;;;15.87;2.70;;;;;12.50;101582.00;;;;10307884;28;20215;-77
2022/11/02 08:20:57;;;;;;;12.23;2.73;;;;;12.40;101585.00;;;;10309053;28;20204;-78
2022/11/02 08:25:59;;;;;;;11.87;3.30;;;;;12.80;101590.00;;;;10291161;28;20259;-77
2022/11/02 08:31:01;;;;;;;12.57;3.33;;;;;13.20;101589.00;;;;10324211;28;20725;-78
2022/11/02 08:36:03;;;;;;;15.53;2.77;;;;;13.60;101596.00;;;;10307600;28;20207;-79
2022/11/02 08:41:05;;;;;;;9.80;2.20;;;;;13.90;101593.00;;;;10305763;28;20307;-78
2022/11/02 08:46:07;;;;;;;18.03;3.50;;;;;14.10;101608.00;;;;10323066;28;20196;-77
2022/11/02 08:51:16;;;;;;;18.90;2.93;;;;;13.70;101600.00;;;;10307558;28;20195;-78
2022/11/02 08:56:18;;;;;;;12.87;2.80;;;;;13.20;101601.00;;;;10322467;28;20200;-78
2022/11/02 09:01:20;;;;;;;17.43;3.33;;;;;13.30;101602.00;;;;10322342;28;20684;-77
2022/11/02 09:06:22;;;;;;;12.30;2.77;;;;;13.80;101593.00;;;;10305339;28;20255;-77
2022/11/02 09:11:24;;;;;;;17.40;2.90;;;;;14.30;101606.00;;;;10263141;28;20200;-78
2022/11/02 09:16:26;;;;;;;8.77;2.17;;;;;14.50;101609.00;;;;10338547;28;20188;-78
2022/11/02 09:21:28;;;;;;;10.90;2.28;;;;;14.50;101605.00;;;;10362915;28;20199;-77
2022/11/02 09:26:30;;;;;;;7.53;2.10;;;;;14.70;101603.00;;;;10361991;28;20195;-78
2022/11/02 09:31:32;;;;;;;11.82;2.80;;;;;14.90;101604.00;;;;10349896;28;20275;-78
2022/11/02 09:36:34;;;;;;;14.52;3.00;;;;;15.10;101604.00;;;;10320668;28;20682;-78
2022/11/02 09:41:49;;;;;;;10.90;3.22;;;;;15.10;101600.00;;;;10321388;28;20250;-78
2022/11/02 09:46:52;;;;;;;11.30;2.58;;;;;15.20;101602.00;;;;10321662;28;20191;-78
2022/11/02 09:52:23;;;;;;;12.32;2.65;;;;;15.30;101612.00;;;;10292913;28;20683;-77
2022/11/02 09:57:32;;;;;;;17.85;4.13;;;;;15.40;101600.00;;;;10291758;28;20266;-78
2022/11/02 10:02:54;;;;;;;14.52;2.75;;;;;15.60;101618.00;;;;10321747;28;20279;-77
2022/11/02 10:08:02;;;;;;;11.50;2.72;;;;;15.80;101615.00;;;;10305448;28;20307;-78
2022/11/02 10:13:16;;;;;;;7.90;1.95;;;;;16.00;101616.00;;;;10320154;28;20218;-78
2022/11/02 10:18:23;;;;;;;11.68;2.85;;;;;16.20;101624.00;;;;10339247;28;20270;-78
2022/11/02 10:23:38;;;;;;;12.95;3.35;;;;;16.50;101624.00;;;;10377587;28;20233;-78
2022/11/02 10:28:45;;;;;;;13.30;2.92;;;;;16.80;101624.00;;;;10343962;28;20194;-78
2022/11/02 10:33:47;;;;;;;9.93;2.55;;;;;17.20;101629.00;;;;10322149;28;20235;-79
2022/11/02 10:38:52;;;;;;;13.65;3.28;;;;;17.60;101619.00;;;;10318923;28;20223;-78
2022/11/02 10:44:13;;;;;;;10.35;2.13;;;;;17.30;101621.00;;;;10303648;28;20196;-78
2022/11/02 10:49:20;;;;;;;9.32;2.20;;;;;17.50;101618.00;;;;10305183;28;20209;-78
2022/11/02 10:54:24;;;;;;;12.90;2.60;;;;;17.30;101620.00;;;;10312831;28;20200;-78
2022/11/02 10:59:35;;;;;;;8.75;2.08;;;;;16.80;101631.00;;;;10310690;28;20306;-78
2022/11/02 11:04:37;;;;;;;11.60;2.70;;;;;16.00;101628.00;;;;10325778;28;20764;-78
2022/11/02 11:09:54;;;;;;;10.90;2.17;;;;;16.30;101630.00;;;;10326336;28;20176;-77
2022/11/02 11:14:58;;;;;;;13.63;2.60;;;;;16.20;101629.00;;;;10300945;28;20523;-77
2022/11/02 11:20:38;;;;;;;15.85;4.72;;;;;16.60;101619.00;;;;10352697;28;20745;-77
2022/11/02 11:25:41;;;;;;;11.20;2.58;;;;;16.60;101612.00;;;;10343057;28;20286;-78
2022/11/02 11:30:43;;;;;;;9.43;2.92;;;;;17.20;101597.00;;;;10366363;28;20192;-78
2022/11/02 11:36:01;;;;;;;16.10;2.63;;;;;18.00;101588.00;;;;10342214;28;20222;-77
2022/11/02 11:41:03;;;;;;;13.30;2.10;;;;;17.70;101596.00;;;;10310930;28;20552;-78
2022/11/02 11:46:07;;;;;;;11.30;2.22;;;;;17.00;101583.00;;;;10309724;28;20204;-77
2022/11/02 11:51:32;;;;;;;11.00;2.53;;;;;16.80;101583.00;;;;10342307;28;20244;-77
2022/11/02 11:56:34;;;;;;;13.90;2.55;;;;;17.70;101566.00;;;;10269868;28;20197;-78
2022/11/02 12:01:39;;;;;;;7.57;1.98;;;;;18.50;101559.00;;;;10307352;28;20204;-77
2022/11/02 12:06:53;;;;;;;8.20;2.35;;;;;19.00;101553.00;;;;10326046;28;20220;-78
2022/11/02 12:12:20;;;;;;;8.45;1.88;;;;;18.40;101550.00;;;;10332845;28;20652;-77
2022/11/02 12:17:31;;;;;;;8.88;2.30;;;;;18.50;101548.00;;;;10351301;28;20184;-78
2022/11/02 12:23:03;;;;;;;8.75;2.45;;;;;18.50;101540.00;;;;10380607;28;20803;-78
2022/11/02 12:28:23;;;;;;;9.27;1.92;;;;;18.10;101522.00;;;;10339067;28;20266;-78
2022/11/02 12:33:52;;;;;;;11.48;2.13;;;;;18.60;101523.00;;;;10315467;28;20199;-78
2022/11/02 12:39:02;;;;;;;5.45;1.85;;;;;18.60;101522.00;;;;10321259;28;20220;-78
2022/11/02 12:44:27;;;;;;;10.80;1.75;;;;;18.50;101507.00;;;;10305963;28;20564;-78
2022/11/02 12:50:01;;;;;;;9.82;1.90;;;;;18.00;101505.00;;;;10254683;28;20208;-79
2022/11/02 12:55:10;;;;;;;10.38;2.28;;;;;18.50;101500.00;;;;10338305;28;20544;-78
2022/11/02 13:00:20;;;;;;;7.13;1.58;;;;;18.80;101502.00;;;;10306642;28;20208;-78
2022/11/02 13:05:36;;;;;;;6.93;1.85;;;;;17.50;101501.00;;;;10316524;28;20243;-78
2022/11/02 13:10:44;;;;;;;10.65;2.38;;;;;17.10;101491.00;;;;10298112;28;20615;-78
2022/11/02 13:15:53;;;;;;;8.00;1.23;;;;;17.80;101485.00;;;;10345177;28;20195;-78
2022/11/02 13:20:59;;;;;;;8.10;2.03;;;;;18.00;101492.00;;;;10361773;28;20212;-77
2022/11/02 13:26:09;;;;;;;9.13;2.13;;;;;17.90;101486.00;;;;10283061;28;20211;-78
2022/11/02 13:31:15;;;;;;;11.23;1.70;;;;;17.70;101492.00;;;;10320575;28;20192;-79
2022/11/02 13:36:18;;;;;;;7.88;1.98;;;;;17.20;101486.00;;;;10303342;28;20715;-79
2022/11/02 13:41:42;;;;;;;11.52;2.03;;;;;16.70;101485.00;;;;10309675;28;20201;-78
2022/11/02 13:47:12;;;;;;;5.05;1.70;;;;;17.00;101484.00;;;;10313281;28;20208;-78
2022/11/02 13:52:20;;;;;;;6.22;1.98;;;;;17.10;101481.00;;;;10304175;28;20196;-78
2022/11/02 13:57:33;;;;;;;8.25;1.58;;;;;17.70;101465.00;;;;10288418;28;20290;-78
2022/11/02 14:02:41;;;;;;;8.68;1.38;;;;;18.90;101443.00;;;;10320372;28;20213;-78
2022/11/02 14:07:43;;;;;;;9.23;1.88;;;;;19.40;101425.00;;;;10320331;28;20224;-78
2022/11/02 14:12:47;;;;;;;6.28;1.73;;;;;19.10;101415.00;;;;10320726;28;20196;-78
2022/11/02 14:17:51;;;;;;;3.90;0.93;;;;;18.20;101421.00;;;;10335636;28;20662;-78
2022/11/02 14:23:22;;;;;;;9.07;1.42;;;;;18.20;101410.00;;;;10301239;28;20538;-78
2022/11/02 14:28:42;;;;;;;10.57;1.70;;;;;17.90;101406.00;;;;10292648;28;20588;-79
2022/11/02 14:33:56;;;;;;;7.70;2.15;;;;;17.00;101396.00;;;;10329446;28;20196;-79
2022/11/02 14:39:26;;;;;;;6.38;1.30;;;;;16.40;101406.00;;;;10338304;28;20215;-79
2022/11/02 14:44:40;;;;;;;9.68;1.92;;;;;16.00;101391.00;;;;10312299;28;20223;-78
2022/11/02 14:49:55;;;;;;;10.13;2.05;;;;;15.80;101388.00;;;;10328799;28;20199;-78
2022/11/02 14:55:03;;;;;;;13.00;1.70;;;;;16.00;101394.00;;;;10328269;28;20556;-78
2022/11/02 15:00:26;;;;;;;11.27;1.90;;;;;16.00;101384.00;;;;10345489;28;20214;-79
2022/11/02 15:05:32;;;;;;;6.15;1.70;;;;;16.10;101383.00;;;;10296306;28;20220;-79
2022/11/02 15:10:43;;;;;;;7.90;2.17;;;;;16.10;101383.00;;;;10343656;28;20192;-78
2022/11/02 15:16:10;;;;;;;6.60;1.90;;;;;15.40;101377.00;;;;10295491;28;20204;-78
2022/11/02 15:21:18;;;;;;;8.55;2.20;;;;;15.10;101363.00;;;;10311501;28;20208;-78
2022/11/02 15:26:30;;;;;;;6.72;1.67;;;;;14.90;101363.00;;;;10326691;28;20283;-78
2022/11/02 15:31:34;;;;;;;7.70;1.67;;;;;14.70;101347.00;;;;10327653;28;20198;-78
2022/11/02 15:36:38;;;;;;;8.57;1.40;;;;;14.50;101343.00;;;;10319920;28;20775;-78
2022/11/02 15:41:49;;;;;;;5.00;1.53;;;;;14.30;101356.00;;;;10310499;28;20251;-79
2022/11/02 15:47:09;;;;;;;7.23;2.37;;;;;14.10;101350.00;;;;10321308;28;20208;-79
2022/11/02 15:52:54;;;;;;;8.63;1.87;;;;;13.80;101355.00;;;;10311739;28;20220;-78
2022/11/02 15:58:49;;;;;;;6.33;1.23;;;;;13.50;101343.00;;;;10272535;28;20204;-78
2022/11/02 16:03:57;;;;;;;11.90;1.53;;;;;13.30;101344.00;;;;10252156;28;20272;-78
2022/11/02 16:09:01;;;;;;;5.03;1.30;;;;;13.20;101344.00;;;;10293361;28;20204;-79
2022/11/02 16:14:23;;;;;;;9.20;3.20;;;;;13.00;101330.00;;;;10308901;28;20181;-78
2022/11/02 16:19:25;;;;;;;6.90;2.07;;;;;12.90;101321.00;;;;10348162;28;20207;-78
2022/11/02 16:24:27;;;;;;;8.07;1.90;;;;;12.80;101327.00;;;;10333024;28;20196;-78
2022/11/02 16:29:31;;;;;;;6.13;1.90;;;;;12.70;101319.00;;;;10365599;28;20256;-78
2022/11/02 16:34:33;;;;;;;4.33;1.40;;;;;12.50;101333.00;;;;10345048;28;20207;-78
2022/11/02 16:39:38;;;;;;;8.13;1.80;;;;;12.50;101328.00;;;;10308552;28;20250;-78
2022/11/02 16:44:42;;;;;;;7.37;1.70;;;;;12.40;101336.00;;;;10275437;28;20296;-77
2022/11/02 16:49:49;;;;;;;8.80;2.10;;;;;12.30;101333.00;;;;10307034;28;20199;-78
2022/11/02 16:54:51;;;;;;;15.93;1.90;;;;;12.20;101334.00;;;;10317195;28;20196;-79
2022/11/02 16:59:59;;;;;;;6.40;1.37;;;;;12.10;101328.00;;;;10324384;28;20212;-78
2022/11/02 17:05:02;;;;;;;6.17;2.00;;;;;12.10;101313.00;;;;10306549;28;20224;-77
2022/11/02 17:10:17;;;;;;;6.63;1.87;;;;;12.00;101320.00;;;;10305892;28;20203;-77
2022/11/02 17:15:23;;;;;;;8.27;1.57;;;;;11.90;101319.00;;;;10334175;28;20203;-79
2022/11/02 17:20:25;;;;;;;10.43;1.60;;;;;11.90;101319.00;;;;10312284;28;20243;-77
2022/11/02 17:25:27;;;;;;;10.73;2.00;;;;;12.00;101314.00;;;;10323847;28;20196;-78
2022/11/02 17:30:29;;;;;;;9.57;1.50;;;;;12.00;101300.00;;;;10307259;28;20190;-78
2022/11/02 17:35:31;;;;;;;5.50;1.30;;;;;12.00;101303.00;;;;10286517;28;20710;-78
2022/11/02 17:40:33;;;;;;;10.90;2.50;;;;;12.10;101312.00;;;;10322515;28;20272;-78
2022/11/02 17:45:37;;;;;;;11.37;1.87;;;;;12.10;101312.00;;;;10322369;28;20200;-79
2022/11/02 17:50:40;;;;;;;9.20;2.43;;;;;12.10;101295.00;;;;10306585;28;20196;-79
2022/11/02 17:55:42;;;;;;;6.57;1.83;;;;;12.20;101297.00;;;;10307184;28;20255;-79
2022/11/02 18:00:44;;;;;;;10.23;2.10;;;;;12.20;101292.00;;;;10275130;28;20215;-78
2022/11/02 18:05:48;;;;;;;20.17;3.17;;;;;12.20;101299.00;;;;10306454;28;20607;-78
2022/11/02 18:10:53;;;;;;;9.77;2.03;;;;;12.20;101291.00;;;;10331368;28;20188;-78
2022/11/02 18:15:55;;;;;;;8.07;2.07;;;;;12.20;101291.00;;;;10336245;28;20192;-79
2022/11/02 18:20:57;;;;;;;5.60;1.60;;;;;12.20;101284.00;;;;10310333;28;20228;-78
2022/11/02 18:25:59;;;;;;;4.97;2.40;;;;;12.20;101293.00;;;;10320920;28;20189;-78
2022/11/02 18:31:01;;;;;;;7.80;2.27;;;;;12.20;101294.00;;;;10288974;28;20243;-77
2022/11/02 18:36:05;;;;;;;10.23;2.23;;;;;12.10;101293.00;;;;10304791;28;20200;-78
2022/11/02 18:41:28;;;;;;;9.47;2.10;;;;;12.00;101279.00;;;;10311384;28;20204;-77
2022/11/02 18:46:31;;;;;;;8.03;1.80;;;;;12.00;101274.00;;;;10287696;28;20192;-78
2022/11/02 18:51:33;;;;;;;6.53;1.97;;;;;11.90;101261.00;;;;10320151;28;20192;-78
2022/11/02 18:56:35;;;;;;;12.97;1.97;;;;;11.90;101255.00;;;;10321373;28;20239;-78
2022/11/02 19:01:37;;;;;;;9.60;2.20;;;;;11.80;101251.00;;;;10318855;28;20213;-78
2022/11/02 19:12:03;;;;;;;11.93;3.33;;;;;11.70;101221.00;;;;10324403;28;20243;-78
2022/11/02 19:17:06;;;;;;;8.37;1.90;;;;;11.70;101219.00;;;;10323874;28;20296;-78
2022/11/02 19:22:12;;;;;;;8.40;2.20;;;;;11.70;101210.00;;;;10280386;28;20235;-77
2022/11/02 19:27:16;;;;;;;14.03;2.77;;;;;11.70;101211.00;;;;10312417;28;20679;-79
2022/11/02 19:32:19;;;;;;;8.90;2.20;;;;;11.80;101193.00;;;;10326859;28;20192;-78
2022/11/02 19:37:21;;;;;;;16.00;3.70;;;;;11.90;101191.00;;;;10311274;28;20239;-78
2022/11/02 19:42:22;;;;;;;9.03;2.03;;;;;11.90;101177.00;;;;10322151;28;20263;-79
2022/11/02 19:47:26;;;;;;;7.13;2.53;;;;;12.00;101177.00;;;;10293480;28;20200;-79
2022/11/02 19:52:28;;;;;;;17.87;2.63;;;;;12.00;101167.00;;;;10326230;28;20598;-79
2022/11/02 19:57:30;;;;;;;10.73;2.70;;;;;12.00;101173.00;;;;10294669;28;20212;-78
2022/11/02 20:02:34;;;;;;;11.33;2.40;;;;;12.00;101162.00;;;;10309778;28;20212;-78
2022/11/02 20:07:36;;;;;;;12.27;2.83;;;;;12.10;101155.00;;;;10321630;28;20280;-79
2022/11/02 20:12:38;;;;;;;14.43;2.03;;;;;12.10;101160.00;;;;10284739;28;20189;-77
2022/11/02 20:17:40;;;;;;;12.40;2.37;;;;;12.10;101139.00;;;;10297109;28;20221;-78
2022/11/02 20:23:02;;;;;;;12.17;3.07;;;;;12.10;101139.00;;;;10307489;28;20238;-79
2022/11/02 20:28:04;;;;;;;10.03;2.37;;;;;12.10;101128.00;;;;10307760;28;20196;-79
2022/11/02 20:33:06;;;;;;;12.43;2.03;;;;;12.10;101136.00;;;;10289288;28;20192;-78
2022/11/02 20:38:08;;;;;;;13.50;2.67;;;;;12.10;101131.00;;;;10320776;28;20204;-78
2022/11/02 20:43:10;;;;;;;9.30;2.23;;;;;12.10;101116.00;;;;10307178;28;20218;-78
2022/11/02 20:48:12;;;;;;;13.10;2.27;;;;;12.10;101113.00;;;;10306536;28;20204;-78
2022/11/02 20:53:14;;;;;;;6.83;2.17;;;;;12.10;101109.00;;;;10307064;28;20308;-79
2022/11/02 20:58:16;;;;;;;8.70;2.23;;;;;12.10;101111.00;;;;10323966;28;20694;-78
2022/11/02 21:03:18;;;;;;;10.40;2.50;;;;;12.10;101114.00;;;;10306630;28;20208;-78
2022/11/02 21:08:23;;;;;;;12.60;3.23;;;;;12.10;101108.00;;;;10282478;28;20217;-78
2022/11/02 21:18:47;;;;;;;8.30;1.97;;;;;12.10;101105.00;;;;10304057;28;20200;-79
2022/11/02 21:23:49;;;;;;;11.93;3.53;;;;;12.10;101091.00;;;;10290234;28;20638;-78
2022/11/02 21:28:51;;;;;;;11.97;2.40;;;;;12.10;101111.00;;;;10295170;28;20206;-78
2022/11/02 21:33:53;;;;;;;5.60;2.00;;;;;12.10;101092.00;;;;10324021;28;20204;-77
2022/11/02 21:38:55;;;;;;;7.47;1.70;;;;;12.10;101101.00;;;;10292586;28;20568;-79
2022/11/02 21:43:56;;;;;;;15.53;2.13;;;;;12.00;101085.00;;;;10303081;28;20279;-79
2022/11/02 21:48:58;;;;;;;8.03;2.20;;;;;12.10;101089.00;;;;10304547;28;20211;-79
2022/11/02 21:54:00;;;;;;;11.83;2.70;;;;;12.10;101084.00;;;;10254594;28;20240;-79
2022/11/02 21:59:08;;;;;;;13.53;2.57;;;;;12.10;101084.00;;;;10268414;28;20193;-79
2022/11/02 22:04:22;;;;;;;10.37;2.37;;;;;12.00;101065.00;;;;10258455;28;20295;-79
2022/11/02 22:09:24;;;;;;;7.23;1.57;;;;;12.10;101069.00;;;;10306727;28;20216;-79
2022/11/02 22:14:26;;;;;;;7.60;1.90;;;;;12.20;101053.00;;;;10311558;28;20237;-80
2022/11/02 22:19:28;;;;;;;4.77;1.60;;;;;12.30;101053.00;;;;10294578;28;20244;-78
2022/11/02 22:24:30;;;;;;;7.77;2.00;;;;;12.30;101045.00;;;;10265765;28;20197;-78
2022/11/02 22:29:34;;;;;;;8.77;2.00;;;;;12.30;101039.00;;;;10250366;28;20672;-78
2022/11/02 22:34:36;;;;;;;7.03;1.90;;;;;12.30;101016.00;;;;10282497;28;20196;-77
2022/11/02 22:39:38;;;;;;;10.33;2.10;;;;;12.30;101001.00;;;;10303790;28;20212;-78
2022/11/02 22:44:40;;;;;;;8.60;1.97;;;;;12.30;101003.00;;;;10293119;28;20228;-78
2022/11/02 22:49:42;;;;;;;8.87;2.13;;;;;12.30;100996.00;;;;10297974;28;20242;-78
2022/11/02 22:54:44;;;;;;;11.37;1.73;;;;;12.20;100989.00;;;;10332331;28;20552;-79
2022/11/02 22:59:46;;;;;;;7.67;1.77;;;;;12.20;100988.00;;;;10330339;28;20563;-78
2022/11/02 23:04:47;;;;;;;7.80;1.80;;;;;12.20;100979.00;;;;10326485;28;20189;-78
2022/11/02 23:09:50;;;;;;;5.60;1.77;;;;;12.20;100975.00;;;;10299118;28;20695;-78
2022/11/02 23:14:51;;;;;;;7.97;1.90;;;;;12.20;100965.00;;;;10317959;28;20279;-79
2022/11/02 23:19:53;;;;;;;5.50;1.90;;;;;12.20;100958.00;;;;10344578;28;20702;-79
2022/11/02 23:25:09;;;;;;;8.67;1.73;;;;;12.10;100953.00;;;;10311482;28;20192;-79
2022/11/02 23:40:54;;;;;;;8.73;2.07;;;;;12.20;100945.00;;;;10325489;28;20254;-78
2022/11/02 23:45:56;;;;;;;9.37;2.17;;;;;12.10;100933.00;;;;10309145;28;20200;-79
